sensor_id;sensor_type;location;lat;lon;timestamp;P1;durP1;ratioP1;P2;durP2;ratioP2
72575;SDS011;60613;48.658;2.328;2023-02-12T07:02:36;1.90;;;0.80;;
72575;SDS011;60613;48.658;2.328;2023-02-12T07:05:02;1.77;;;0.70;;
72575;SDS011;60613;48.658;2.328;2023-02-12T07:07:27;2.78;;;0.90;;
72575;SDS011;60613;48.658;2.328;2023-02-12T07:09:53;3.17;;;1.00;;
72575;SDS011;60613;48.658;2.328;2023-02-12T07:12:19;3.30;;;1.20;;
72575;SDS011;60613;48.658;2.328;2023-02-12T07:14:44;4.50;;;1.40;;
72575;SDS011;60613;48.658;2.328;2023-02-12T07:17:10;2.87;;;1.10;;
72575;SDS011;60613;48.658;2.328;2023-02-12T07:19:35;3.85;;;1.30;;
72575;SDS011;60613;48.658;2.328;2023-02-12T07:22:01;3.20;;;1.27;;
72575;SDS011;60613;48.658;2.328;2023-02-12T07:24:27;4.18;;;1.40;;
72575;SDS011;60613;48.658;2.328;2023-02-12T07:26:53;4.10;;;1.40;;
72575;SDS011;60613;48.658;2.328;2023-02-12T07:29:18;4.77;;;1.33;;
72575;SDS011;60613;48.658;2.328;2023-02-12T07:31:44;4.37;;;1.40;;
72575;SDS011;60613;48.658;2.328;2023-02-12T07:34:10;3.75;;;1.30;;
72575;SDS011;60613;48.658;2.328;2023-02-12T07:36:35;4.45;;;1.42;;
72575;SDS011;60613;48.658;2.328;2023-02-12T07:39:01;4.10;;;1.60;;
72575;SDS011;60613;48.658;2.328;2023-02-12T07:41:29;4.28;;;1.40;;
72575;SDS011;60613;48.658;2.328;2023-02-12T07:44:03;3.65;;;1.50;;
72575;SDS011;60613;48.658;2.328;2023-02-12T07:46:33;4.65;;;1.50;;
72575;SDS011;60613;48.658;2.328;2023-02-12T07:49:02;4.53;;;1.50;;
72575;SDS011;60613;48.658;2.328;2023-02-12T07:51:29;4.20;;;1.50;;
72575;SDS011;60613;48.658;2.328;2023-02-12T07:53:56;3.92;;;1.50;;
72575;SDS011;60613;48.658;2.328;2023-02-12T07:56:23;3.63;;;1.30;;
72575;SDS011;60613;48.658;2.328;2023-02-12T07:58:54;4.63;;;1.80;;
72575;SDS011;60613;48.658;2.328;2023-02-12T08:01:21;5.68;;;2.47;;
72575;SDS011;60613;48.658;2.328;2023-02-12T08:03:52;6.32;;;2.63;;
72575;SDS011;60613;48.658;2.328;2023-02-12T08:06:19;6.22;;;2.90;;
72575;SDS011;60613;48.658;2.328;2023-02-12T08:08:50;6.05;;;2.60;;
72575;SDS011;60613;48.658;2.328;2023-02-12T08:11:17;7.27;;;2.87;;
72575;SDS011;60613;48.658;2.328;2023-02-12T08:13:43;6.47;;;3.03;;
72575;SDS011;60613;48.658;2.328;2023-02-12T08:16:10;6.97;;;2.83;;
72575;SDS011;60613;48.658;2.328;2023-02-12T08:18:37;6.93;;;3.13;;
72575;SDS011;60613;48.658;2.328;2023-02-12T08:21:04;6.70;;;2.90;;
72575;SDS011;60613;48.658;2.328;2023-02-12T08:23:31;7.30;;;3.05;;
72575;SDS011;60613;48.658;2.328;2023-02-12T08:26:17;7.25;;;3.08;;
72575;SDS011;60613;48.658;2.328;2023-02-12T08:28:46;7.15;;;3.53;;
72575;SDS011;60613;48.658;2.328;2023-02-12T08:31:15;7.20;;;3.23;;
72575;SDS011;60613;48.658;2.328;2023-02-12T08:33:44;7.40;;;3.70;;
72575;SDS011;60613;48.658;2.328;2023-02-12T08:36:11;6.93;;;2.70;;
72575;SDS011;60613;48.658;2.328;2023-02-12T08:38:39;5.57;;;2.30;;
72575;SDS011;60613;48.658;2.328;2023-02-12T08:41:08;5.65;;;2.03;;
72575;SDS011;60613;48.658;2.328;2023-02-12T08:43:38;6.00;;;1.70;;
72575;SDS011;60613;48.658;2.328;2023-02-12T08:46:06;5.90;;;2.08;;
72575;SDS011;60613;48.658;2.328;2023-02-12T08:48:35;6.25;;;1.80;;
72575;SDS011;60613;48.658;2.328;2023-02-12T08:51:12;4.93;;;1.73;;
72575;SDS011;60613;48.658;2.328;2023-02-12T08:53:43;4.65;;;1.42;;
72575;SDS011;60613;48.658;2.328;2023-02-12T08:56:12;4.47;;;1.73;;
72575;SDS011;60613;48.658;2.328;2023-02-12T08:58:39;5.32;;;1.50;;
72575;SDS011;60613;48.658;2.328;2023-02-12T09:01:10;6.78;;;1.77;;
72575;SDS011;60613;48.658;2.328;2023-02-12T09:03:37;4.53;;;1.50;;
72575;SDS011;60613;48.658;2.328;2023-02-12T09:06:03;5.68;;;1.70;;
72575;SDS011;60613;48.658;2.328;2023-02-12T09:08:30;4.67;;;1.60;;
72575;SDS011;60613;48.658;2.328;2023-02-12T09:10:56;4.85;;;1.75;;
72575;SDS011;60613;48.658;2.328;2023-02-12T09:13:22;7.03;;;1.83;;
72575;SDS011;60613;48.658;2.328;2023-02-12T09:15:47;5.70;;;1.50;;
72575;SDS011;60613;48.658;2.328;2023-02-12T09:18:13;4.82;;;1.70;;
72575;SDS011;60613;48.658;2.328;2023-02-12T09:20:41;7.13;;;1.80;;
72575;SDS011;60613;48.658;2.328;2023-02-12T09:23:09;5.83;;;1.70;;
72575;SDS011;60613;48.658;2.328;2023-02-12T09:25:40;4.75;;;1.85;;
72575;SDS011;60613;48.658;2.328;2023-02-12T09:28:06;5.90;;;1.60;;
72575;SDS011;60613;48.658;2.328;2023-02-12T09:30:33;5.93;;;1.60;;
72575;SDS011;60613;48.658;2.328;2023-02-12T09:33:00;6.88;;;1.73;;
72575;SDS011;60613;48.658;2.328;2023-02-12T09:35:25;5.10;;;1.50;;
72575;SDS011;60613;48.658;2.328;2023-02-12T09:37:51;6.00;;;1.60;;
72575;SDS011;60613;48.658;2.328;2023-02-12T09:40:18;4.68;;;1.63;;
72575;SDS011;60613;48.658;2.328;2023-02-12T09:45:34;4.38;;;1.70;;
72575;SDS011;60613;48.658;2.328;2023-02-12T09:50:54;4.93;;;1.90;;
72575;SDS011;60613;48.658;2.328;2023-02-12T09:53:25;5.43;;;1.98;;
72575;SDS011;60613;48.658;2.328;2023-02-12T09:55:53;5.75;;;2.28;;
72575;SDS011;60613;48.658;2.328;2023-02-12T09:58:27;6.00;;;2.20;;
72575;SDS011;60613;48.658;2.328;2023-02-12T10:01:13;6.20;;;2.00;;
72575;SDS011;60613;48.658;2.328;2023-02-12T10:03:41;6.80;;;2.10;;
72575;SDS011;60613;48.658;2.328;2023-02-12T10:06:10;6.55;;;2.10;;
72575;SDS011;60613;48.658;2.328;2023-02-12T10:17:07;6.47;;;2.00;;
72575;SDS011;60613;48.658;2.328;2023-02-12T10:27:59;6.23;;;1.87;;
72575;SDS011;60613;48.658;2.328;2023-02-12T10:33:04;6.95;;;1.75;;
72575;SDS011;60613;48.658;2.328;2023-02-12T10:35:34;5.03;;;1.80;;
72575;SDS011;60613;48.658;2.328;2023-02-12T10:38:03;5.15;;;1.67;;
72575;SDS011;60613;48.658;2.328;2023-02-12T10:40:31;5.00;;;1.70;;
72575;SDS011;60613;48.658;2.328;2023-02-12T10:42:59;6.28;;;1.88;;
72575;SDS011;60613;48.658;2.328;2023-02-12T10:45:31;4.55;;;1.73;;
72575;SDS011;60613;48.658;2.328;2023-02-12T10:53:38;6.67;;;1.90;;
72575;SDS011;60613;48.658;2.328;2023-02-12T11:01:22;3.88;;;1.50;;
72575;SDS011;60613;48.658;2.328;2023-02-12T11:03:58;5.60;;;2.00;;
72575;SDS011;60613;48.658;2.328;2023-02-12T11:06:25;4.67;;;1.80;;
72575;SDS011;60613;48.658;2.328;2023-02-12T11:08:53;4.65;;;1.70;;
72575;SDS011;60613;48.658;2.328;2023-02-12T11:11:20;4.75;;;1.90;;
72575;SDS011;60613;48.658;2.328;2023-02-12T11:14:05;5.43;;;1.90;;
72575;SDS011;60613;48.658;2.328;2023-02-12T11:16:43;5.20;;;1.80;;
72575;SDS011;60613;48.658;2.328;2023-02-12T11:19:20;5.53;;;1.80;;
72575;SDS011;60613;48.658;2.328;2023-02-12T11:21:48;4.10;;;1.63;;
72575;SDS011;60613;48.658;2.328;2023-02-12T11:27:10;5.55;;;1.80;;
72575;SDS011;60613;48.658;2.328;2023-02-12T11:29:39;5.30;;;1.80;;
72575;SDS011;60613;48.658;2.328;2023-02-12T11:32:06;4.47;;;1.70;;
72575;SDS011;60613;48.658;2.328;2023-02-12T11:34:34;6.05;;;2.00;;
72575;SDS011;60613;48.658;2.328;2023-02-12T11:37:00;5.63;;;1.90;;
72575;SDS011;60613;48.658;2.328;2023-02-12T11:39:33;5.55;;;1.85;;
72575;SDS011;60613;48.658;2.328;2023-02-12T11:42:14;5.35;;;1.80;;
72575;SDS011;60613;48.658;2.328;2023-02-12T11:44:43;5.10;;;1.70;;
72575;SDS011;60613;48.658;2.328;2023-02-12T11:47:37;5.60;;;2.10;;
72575;SDS011;60613;48.658;2.328;2023-02-12T11:50:07;4.85;;;1.80;;
72575;SDS011;60613;48.658;2.328;2023-02-12T11:52:42;6.30;;;2.10;;
72575;SDS011;60613;48.658;2.328;2023-02-12T11:55:29;5.32;;;1.85;;
72575;SDS011;60613;48.658;2.328;2023-02-12T11:58:03;5.33;;;2.00;;
72575;SDS011;60613;48.658;2.328;2023-02-12T12:00:48;5.82;;;2.20;;
72575;SDS011;60613;48.658;2.328;2023-02-12T12:06:18;5.60;;;2.15;;
72575;SDS011;60613;48.658;2.328;2023-02-12T12:11:25;5.57;;;2.00;;
72575;SDS011;60613;48.658;2.328;2023-02-12T12:14:19;6.82;;;2.10;;
72575;SDS011;60613;48.658;2.328;2023-02-12T12:17:15;5.95;;;2.22;;
72575;SDS011;60613;48.658;2.328;2023-02-12T12:20:10;7.45;;;2.40;;
72575;SDS011;60613;48.658;2.328;2023-02-12T12:22:41;5.28;;;1.98;;
72575;SDS011;60613;48.658;2.328;2023-02-12T12:25:41;4.67;;;1.80;;
72575;SDS011;60613;48.658;2.328;2023-02-12T12:31:13;5.55;;;2.10;;
72575;SDS011;60613;48.658;2.328;2023-02-12T12:41:37;5.43;;;1.88;;
72575;SDS011;60613;48.658;2.328;2023-02-12T12:50:22;5.78;;;2.22;;
72575;SDS011;60613;48.658;2.328;2023-02-12T12:58:35;5.18;;;1.85;;
72575;SDS011;60613;48.658;2.328;2023-02-12T13:24:04;5.90;;;2.20;;
72575;SDS011;60613;48.658;2.328;2023-02-12T13:27:01;5.50;;;2.13;;
72575;SDS011;60613;48.658;2.328;2023-02-12T13:30:19;6.00;;;2.07;;
72575;SDS011;60613;48.658;2.328;2023-02-12T13:35:30;6.05;;;2.05;;
72575;SDS011;60613;48.658;2.328;2023-02-12T13:37:57;6.22;;;1.90;;
72575;SDS011;60613;48.658;2.328;2023-02-12T13:40:25;4.93;;;1.88;;
72575;SDS011;60613;48.658;2.328;2023-02-12T13:54:00;5.37;;;1.87;;
72575;SDS011;60613;48.658;2.328;2023-02-12T13:56:49;5.15;;;1.85;;
72575;SDS011;60613;48.658;2.328;2023-02-12T14:02:01;5.68;;;2.10;;
72575;SDS011;60613;48.658;2.328;2023-02-12T14:04:53;5.50;;;2.10;;
72575;SDS011;60613;48.658;2.328;2023-02-12T14:07:23;5.37;;;2.20;;
72575;SDS011;60613;48.658;2.328;2023-02-12T14:10:04;7.15;;;2.20;;
72575;SDS011;60613;48.658;2.328;2023-02-12T14:12:32;6.13;;;2.13;;
72575;SDS011;60613;48.658;2.328;2023-02-12T14:27:41;8.47;;;3.03;;
72575;SDS011;60613;48.658;2.328;2023-02-12T14:37:52;14.35;;;6.13;;
72575;SDS011;60613;48.658;2.328;2023-02-12T14:45:47;16.17;;;7.67;;
72575;SDS011;60613;48.658;2.328;2023-02-12T14:48:38;16.85;;;7.90;;
72575;SDS011;60613;48.658;2.328;2023-02-12T14:51:04;17.10;;;8.45;;
72575;SDS011;60613;48.658;2.328;2023-02-12T14:53:34;15.80;;;7.90;;
72575;SDS011;60613;48.658;2.328;2023-02-12T14:56:01;13.60;;;7.40;;
72575;SDS011;60613;48.658;2.328;2023-02-12T14:58:28;13.63;;;7.30;;
72575;SDS011;60613;48.658;2.328;2023-02-12T15:00:56;13.68;;;7.45;;
72575;SDS011;60613;48.658;2.328;2023-02-12T15:03:31;13.90;;;7.82;;
72575;SDS011;60613;48.658;2.328;2023-02-12T15:08:49;11.90;;;6.73;;
72575;SDS011;60613;48.658;2.328;2023-02-12T15:11:34;11.98;;;6.22;;
72575;SDS011;60613;48.658;2.328;2023-02-12T15:14:21;10.93;;;6.18;;
72575;SDS011;60613;48.658;2.328;2023-02-12T15:17:01;11.00;;;6.05;;
72575;SDS011;60613;48.658;2.328;2023-02-12T15:19:42;11.30;;;5.95;;
72575;SDS011;60613;48.658;2.328;2023-02-12T15:24:44;9.35;;;5.28;;
72575;SDS011;60613;48.658;2.328;2023-02-12T15:27:13;10.85;;;5.35;;
72575;SDS011;60613;48.658;2.328;2023-02-12T15:29:44;9.38;;;5.00;;
72575;SDS011;60613;48.658;2.328;2023-02-12T15:32:21;8.52;;;4.68;;
72575;SDS011;60613;48.658;2.328;2023-02-12T15:34:49;8.03;;;4.20;;
72575;SDS011;60613;48.658;2.328;2023-02-12T15:37:20;9.50;;;4.43;;
72575;SDS011;60613;48.658;2.328;2023-02-12T15:39:50;9.38;;;4.47;;
72575;SDS011;60613;48.658;2.328;2023-02-12T15:42:35;9.38;;;3.80;;
72575;SDS011;60613;48.658;2.328;2023-02-12T15:47:41;8.73;;;4.10;;
72575;SDS011;60613;48.658;2.328;2023-02-12T15:50:12;7.45;;;3.60;;
72575;SDS011;60613;48.658;2.328;2023-02-12T15:52:40;8.00;;;3.80;;
72575;SDS011;60613;48.658;2.328;2023-02-12T15:55:15;7.88;;;3.97;;
72575;SDS011;60613;48.658;2.328;2023-02-12T15:57:43;8.45;;;3.90;;
72575;SDS011;60613;48.658;2.328;2023-02-12T16:00:58;6.90;;;3.50;;
72575;SDS011;60613;48.658;2.328;2023-02-12T16:05:55;6.72;;;3.25;;
72575;SDS011;60613;48.658;2.328;2023-02-12T16:08:26;7.25;;;3.45;;
72575;SDS011;60613;48.658;2.328;2023-02-12T16:10:53;7.55;;;3.47;;
72575;SDS011;60613;48.658;2.328;2023-02-12T16:13:25;7.17;;;3.27;;
72575;SDS011;60613;48.658;2.328;2023-02-12T16:16:18;7.45;;;3.38;;
72575;SDS011;60613;48.658;2.328;2023-02-12T16:18:43;7.18;;;3.40;;
72575;SDS011;60613;48.658;2.328;2023-02-12T16:23:44;7.57;;;3.45;;
72575;SDS011;60613;48.658;2.328;2023-02-12T16:26:18;7.90;;;3.90;;
72575;SDS011;60613;48.658;2.328;2023-02-12T16:28:47;10.18;;;3.60;;
72575;SDS011;60613;48.658;2.328;2023-02-12T16:31:14;8.25;;;4.05;;
72575;SDS011;60613;48.658;2.328;2023-02-12T16:33:42;9.63;;;5.00;;
72575;SDS011;60613;48.658;2.328;2023-02-12T16:43:44;10.23;;;5.57;;
72575;SDS011;60613;48.658;2.328;2023-02-12T16:46:10;10.68;;;6.13;;
72575;SDS011;60613;48.658;2.328;2023-02-12T16:49:12;9.90;;;5.80;;
72575;SDS011;60613;48.658;2.328;2023-02-12T16:51:30;12.07;;;7.27;;
72575;SDS011;60613;48.658;2.328;2023-02-12T16:53:57;11.75;;;7.78;;
72575;SDS011;60613;48.658;2.328;2023-02-12T16:56:26;12.23;;;7.90;;
72575;SDS011;60613;48.658;2.328;2023-02-12T16:58:58;11.10;;;6.57;;
72575;SDS011;60613;48.658;2.328;2023-02-12T17:01:26;12.82;;;6.95;;
72575;SDS011;60613;48.658;2.328;2023-02-12T17:03:57;12.20;;;6.50;;
72575;SDS011;60613;48.658;2.328;2023-02-12T17:06:26;8.70;;;5.75;;
72575;SDS011;60613;48.658;2.328;2023-02-12T17:08:54;11.68;;;7.15;;
72575;SDS011;60613;48.658;2.328;2023-02-12T17:11:20;10.10;;;6.03;;
72575;SDS011;60613;48.658;2.328;2023-02-12T17:13:47;10.18;;;6.13;;
72575;SDS011;60613;48.658;2.328;2023-02-12T17:16:14;9.30;;;5.67;;
72575;SDS011;60613;48.658;2.328;2023-02-12T17:18:40;9.75;;;5.60;;
72575;SDS011;60613;48.658;2.328;2023-02-12T17:21:22;8.98;;;5.05;;
72575;SDS011;60613;48.658;2.328;2023-02-12T17:24:02;8.90;;;5.10;;
72575;SDS011;60613;48.658;2.328;2023-02-12T17:26:29;8.50;;;4.90;;
72575;SDS011;60613;48.658;2.328;2023-02-12T17:28:54;8.63;;;4.88;;
72575;SDS011;60613;48.658;2.328;2023-02-12T17:31:29;8.38;;;5.10;;
72575;SDS011;60613;48.658;2.328;2023-02-12T17:33:58;11.23;;;5.17;;
72575;SDS011;60613;48.658;2.328;2023-02-12T17:36:24;8.20;;;4.55;;
72575;SDS011;60613;48.658;2.328;2023-02-12T17:38:49;7.88;;;4.57;;
72575;SDS011;60613;48.658;2.328;2023-02-12T17:41:15;8.90;;;5.00;;
72575;SDS011;60613;48.658;2.328;2023-02-12T17:43:41;8.25;;;4.63;;
72575;SDS011;60613;48.658;2.328;2023-02-12T17:46:11;8.50;;;4.88;;
72575;SDS011;60613;48.658;2.328;2023-02-12T17:48:38;8.77;;;4.90;;
72575;SDS011;60613;48.658;2.328;2023-02-12T17:51:04;10.75;;;5.30;;
72575;SDS011;60613;48.658;2.328;2023-02-12T17:53:30;14.00;;;8.98;;
72575;SDS011;60613;48.658;2.328;2023-02-12T17:55:56;15.10;;;8.90;;
72575;SDS011;60613;48.658;2.328;2023-02-12T17:58:21;13.25;;;7.93;;
72575;SDS011;60613;48.658;2.328;2023-02-12T18:00:47;13.47;;;7.97;;
72575;SDS011;60613;48.658;2.328;2023-02-12T18:03:12;13.33;;;8.00;;
72575;SDS011;60613;48.658;2.328;2023-02-12T18:05:41;11.77;;;7.30;;
72575;SDS011;60613;48.658;2.328;2023-02-12T18:08:07;11.85;;;7.10;;
72575;SDS011;60613;48.658;2.328;2023-02-12T18:10:38;13.10;;;7.68;;
72575;SDS011;60613;48.658;2.328;2023-02-12T18:13:05;11.37;;;7.10;;
72575;SDS011;60613;48.658;2.328;2023-02-12T18:15:30;11.63;;;7.40;;
72575;SDS011;60613;48.658;2.328;2023-02-12T18:17:56;11.80;;;7.43;;
72575;SDS011;60613;48.658;2.328;2023-02-12T18:20:22;13.52;;;8.40;;
72575;SDS011;60613;48.658;2.328;2023-02-12T18:22:47;12.43;;;7.90;;
72575;SDS011;60613;48.658;2.328;2023-02-12T18:25:14;11.48;;;7.72;;
72575;SDS011;60613;48.658;2.328;2023-02-12T18:27:40;13.82;;;9.23;;
72575;SDS011;60613;48.658;2.328;2023-02-12T18:30:06;12.50;;;8.38;;
72575;SDS011;60613;48.658;2.328;2023-02-12T18:32:33;12.80;;;8.80;;
72575;SDS011;60613;48.658;2.328;2023-02-12T18:35:00;11.98;;;8.50;;
72575;SDS011;60613;48.658;2.328;2023-02-12T18:37:27;14.32;;;9.50;;
72575;SDS011;60613;48.658;2.328;2023-02-12T18:39:53;13.27;;;8.63;;
72575;SDS011;60613;48.658;2.328;2023-02-12T18:42:18;13.65;;;8.93;;
72575;SDS011;60613;48.658;2.328;2023-02-12T18:44:44;12.27;;;8.63;;
72575;SDS011;60613;48.658;2.328;2023-02-12T18:47:09;12.93;;;8.93;;
72575;SDS011;60613;48.658;2.328;2023-02-12T18:49:35;14.30;;;9.57;;
72575;SDS011;60613;48.658;2.328;2023-02-12T18:52:01;13.90;;;9.10;;
72575;SDS011;60613;48.658;2.328;2023-02-12T18:54:26;14.32;;;9.48;;
72575;SDS011;60613;48.658;2.328;2023-02-12T18:56:52;13.47;;;9.67;;
72575;SDS011;60613;48.658;2.328;2023-02-12T18:59:18;14.00;;;9.80;;
72575;SDS011;60613;48.658;2.328;2023-02-12T19:01:44;14.45;;;10.45;;
72575;SDS011;60613;48.658;2.328;2023-02-12T19:04:11;15.70;;;10.63;;
72575;SDS011;60613;48.658;2.328;2023-02-12T19:06:41;17.35;;;11.75;;
72575;SDS011;60613;48.658;2.328;2023-02-12T19:09:10;17.15;;;11.93;;
72575;SDS011;60613;48.658;2.328;2023-02-12T19:11:40;17.20;;;11.80;;
72575;SDS011;60613;48.658;2.328;2023-02-12T19:14:10;17.48;;;12.15;;
72575;SDS011;60613;48.658;2.328;2023-02-12T19:16:39;19.17;;;13.13;;
72575;SDS011;60613;48.658;2.328;2023-02-12T19:19:05;17.80;;;13.13;;
72575;SDS011;60613;48.658;2.328;2023-02-12T19:21:32;19.08;;;13.63;;
72575;SDS011;60613;48.658;2.328;2023-02-12T19:24:01;19.43;;;13.57;;
72575;SDS011;60613;48.658;2.328;2023-02-12T19:26:28;19.40;;;13.97;;
72575;SDS011;60613;48.658;2.328;2023-02-12T19:28:55;20.63;;;14.43;;
72575;SDS011;60613;48.658;2.328;2023-02-12T19:31:23;20.02;;;15.55;;
72575;SDS011;60613;48.658;2.328;2023-02-12T19:33:54;20.27;;;14.45;;
72575;SDS011;60613;48.658;2.328;2023-02-12T19:36:21;21.20;;;15.80;;
72575;SDS011;60613;48.658;2.328;2023-02-12T19:38:48;21.77;;;16.07;;
72575;SDS011;60613;48.658;2.328;2023-02-12T19:41:15;21.85;;;16.10;;
72575;SDS011;60613;48.658;2.328;2023-02-12T19:43:42;20.92;;;15.93;;
72575;SDS011;60613;48.658;2.328;2023-02-12T19:46:09;22.33;;;16.23;;
72575;SDS011;60613;48.658;2.328;2023-02-12T19:48:39;23.85;;;17.10;;
72575;SDS011;60613;48.658;2.328;2023-02-12T19:51:06;22.35;;;16.77;;
72575;SDS011;60613;48.658;2.328;2023-02-12T19:53:34;23.60;;;16.85;;
72575;SDS011;60613;48.658;2.328;2023-02-12T19:56:02;23.60;;;17.70;;
72575;SDS011;60613;48.658;2.328;2023-02-12T19:58:29;23.52;;;17.65;;
72575;SDS011;60613;48.658;2.328;2023-02-12T20:00:55;23.95;;;18.00;;
72575;SDS011;60613;48.658;2.328;2023-02-12T20:03:21;23.23;;;17.73;;
72575;SDS011;60613;48.658;2.328;2023-02-12T20:05:47;22.23;;;17.73;;
72575;SDS011;60613;48.658;2.328;2023-02-12T20:08:17;24.97;;;17.90;;
72575;SDS011;60613;48.658;2.328;2023-02-12T20:10:44;23.77;;;18.15;;
72575;SDS011;60613;48.658;2.328;2023-02-12T20:13:10;24.65;;;18.10;;
72575;SDS011;60613;48.658;2.328;2023-02-12T20:15:36;24.93;;;18.27;;
72575;SDS011;60613;48.658;2.328;2023-02-12T20:18:05;24.93;;;19.20;;
72575;SDS011;60613;48.658;2.328;2023-02-12T20:20:32;22.50;;;18.02;;
72575;SDS011;60613;48.658;2.328;2023-02-12T20:22:58;23.25;;;18.55;;
72575;SDS011;60613;48.658;2.328;2023-02-12T20:25:25;25.40;;;18.83;;
72575;SDS011;60613;48.658;2.328;2023-02-12T20:27:51;24.38;;;19.13;;
72575;SDS011;60613;48.658;2.328;2023-02-12T20:30:17;24.20;;;18.33;;
72575;SDS011;60613;48.658;2.328;2023-02-12T20:32:43;23.25;;;18.55;;
72575;SDS011;60613;48.658;2.328;2023-02-12T20:35:10;23.80;;;18.48;;
72575;SDS011;60613;48.658;2.328;2023-02-12T20:37:36;24.48;;;18.50;;
72575;SDS011;60613;48.658;2.328;2023-02-12T20:40:02;22.03;;;18.13;;
72575;SDS011;60613;48.658;2.328;2023-02-12T20:42:29;23.10;;;18.58;;
72575;SDS011;60613;48.658;2.328;2023-02-12T20:44:55;22.77;;;17.85;;
72575;SDS011;60613;48.658;2.328;2023-02-12T20:47:21;22.85;;;18.55;;
72575;SDS011;60613;48.658;2.328;2023-02-12T20:49:53;23.87;;;19.03;;
72575;SDS011;60613;48.658;2.328;2023-02-12T20:52:19;23.35;;;18.65;;
72575;SDS011;60613;48.658;2.328;2023-02-12T20:54:46;24.90;;;18.75;;
72575;SDS011;60613;48.658;2.328;2023-02-12T20:57:12;25.30;;;18.65;;
72575;SDS011;60613;48.658;2.328;2023-02-12T20:59:38;25.13;;;18.90;;
72575;SDS011;60613;48.658;2.328;2023-02-12T21:02:03;25.08;;;18.90;;
72575;SDS011;60613;48.658;2.328;2023-02-12T21:04:29;24.47;;;19.77;;
72575;SDS011;60613;48.658;2.328;2023-02-12T21:06:55;23.65;;;19.02;;
72575;SDS011;60613;48.658;2.328;2023-02-12T21:09:20;24.83;;;19.07;;
72575;SDS011;60613;48.658;2.328;2023-02-12T21:11:46;25.80;;;20.13;;
72575;SDS011;60613;48.658;2.328;2023-02-12T21:14:14;24.92;;;19.05;;
72575;SDS011;60613;48.658;2.328;2023-02-12T21:16:41;25.25;;;19.48;;
72575;SDS011;60613;48.658;2.328;2023-02-12T21:19:10;27.13;;;19.83;;
72575;SDS011;60613;48.658;2.328;2023-02-12T21:21:39;25.92;;;19.92;;
72575;SDS011;60613;48.658;2.328;2023-02-12T21:24:07;24.33;;;18.52;;
72575;SDS011;60613;48.658;2.328;2023-02-12T21:26:36;25.15;;;19.27;;
72575;SDS011;60613;48.658;2.328;2023-02-12T21:29:02;26.25;;;20.52;;
72575;SDS011;60613;48.658;2.328;2023-02-12T21:31:29;25.10;;;19.30;;
72575;SDS011;60613;48.658;2.328;2023-02-12T21:33:56;26.25;;;19.67;;
72575;SDS011;60613;48.658;2.328;2023-02-12T21:36:25;25.92;;;19.60;;
72575;SDS011;60613;48.658;2.328;2023-02-12T21:38:55;24.92;;;19.38;;
72575;SDS011;60613;48.658;2.328;2023-02-12T21:41:26;25.88;;;19.13;;
72575;SDS011;60613;48.658;2.328;2023-02-12T21:44:00;25.50;;;19.43;;
72575;SDS011;60613;48.658;2.328;2023-02-12T21:46:28;25.65;;;18.63;;
72575;SDS011;60613;48.658;2.328;2023-02-12T21:48:54;25.35;;;19.55;;
72575;SDS011;60613;48.658;2.328;2023-02-12T21:51:23;25.75;;;19.10;;
72575;SDS011;60613;48.658;2.328;2023-02-12T21:53:55;25.23;;;18.80;;
72575;SDS011;60613;48.658;2.328;2023-02-12T21:56:26;26.63;;;19.70;;
72575;SDS011;60613;48.658;2.328;2023-02-12T21:58:53;24.50;;;19.00;;
